createdAt,value
2022-09-09T00:00:00.697Z,6.87
2022-09-09T00:02:29.898Z,7.53
2022-09-09T00:05:03.116Z,6.90
2022-09-09T00:07:39.501Z,7.67
2022-09-09T00:10:19.507Z,7.07
2022-09-09T00:12:54.724Z,7.23
2022-09-09T00:15:24.788Z,7.23
2022-09-09T00:17:55.270Z,7.60
2022-09-09T00:20:25.491Z,6.80
2022-09-09T00:22:59.431Z,7.13
2022-09-09T00:25:30.796Z,7.73
2022-09-09T00:27:58.585Z,7.40
2022-09-09T00:30:27.818Z,6.83
2022-09-09T00:32:59.058Z,7.73
2022-09-09T00:35:29.674Z,7.00
2022-09-09T00:38:00.374Z,6.77
2022-09-09T00:40:31.696Z,7.13
2022-09-09T00:43:15.012Z,7.30
2022-09-09T00:45:54.533Z,7.63
2022-09-09T00:48:23.870Z,7.53
2022-09-09T00:50:53.469Z,7.73
2022-09-09T00:53:36.472Z,8.07
2022-09-09T00:56:09.300Z,8.17
2022-09-09T00:58:37.880Z,8.03
2022-09-09T01:01:08.900Z,7.67
2022-09-09T01:03:37.857Z,7.60
2022-09-09T01:06:15.177Z,7.90
2022-09-09T01:08:58.113Z,7.83
2022-09-09T01:11:29.199Z,8.10
2022-09-09T01:14:01.323Z,8.30
2022-09-09T01:16:30.728Z,7.97
2022-09-09T01:18:58.966Z,8.03
2022-09-09T01:21:31.437Z,7.80
2022-09-09T01:24:08.133Z,7.70
2022-09-09T01:26:40.671Z,8.00
2022-09-09T01:29:10.292Z,7.97
2022-09-09T01:31:39.148Z,7.70
2022-09-09T01:34:11.244Z,8.83
2022-09-09T01:36:42.328Z,7.80
2022-09-09T01:39:11.626Z,8.50
2022-09-09T01:41:41.112Z,8.20
2022-09-09T01:44:10.040Z,8.07
2022-09-09T01:46:37.886Z,8.70
2022-09-09T01:49:08.385Z,8.70
2022-09-09T01:51:37.979Z,8.43
2022-09-09T01:54:06.401Z,8.17
2022-09-09T01:56:38.555Z,8.83
2022-09-09T01:59:11.980Z,7.87
2022-09-09T02:01:46.799Z,8.60
2022-09-09T02:04:20.560Z,8.40
2022-09-09T02:06:48.866Z,9.27
2022-09-09T02:09:17.648Z,8.30
2022-09-09T02:11:48.297Z,9.47
2022-09-09T02:14:20.127Z,8.93
2022-09-09T02:16:51.541Z,8.33
2022-09-09T02:19:24.889Z,8.47
2022-09-09T02:21:53.604Z,8.73
2022-09-09T02:24:21.887Z,9.23
2022-09-09T02:26:52.370Z,8.43
2022-09-09T02:29:24.977Z,8.80
2022-09-09T02:31:53.961Z,8.17
2022-09-09T02:34:23.228Z,9.37
2022-09-09T02:36:52.290Z,7.63
2022-09-09T02:39:20.382Z,8.80
2022-09-09T02:41:48.445Z,8.33
2022-09-09T02:44:18.385Z,8.57
2022-09-09T02:47:00.951Z,9.03
2022-09-09T02:49:38.495Z,8.47
2022-09-09T02:52:07.911Z,8.90
2022-09-09T02:54:37.248Z,9.10
2022-09-09T02:57:15.096Z,9.27
2022-09-09T02:59:43.142Z,8.97
2022-09-09T03:02:11.303Z,8.60
2022-09-09T03:07:36.347Z,7.40
2022-09-09T03:10:05.382Z,8.07
2022-09-09T03:12:34.963Z,7.67
2022-09-09T03:15:05.279Z,8.20
2022-09-09T03:17:33.101Z,7.87
2022-09-09T03:20:02.814Z,8.03
2022-09-09T03:22:30.995Z,8.67
2022-09-09T03:24:58.754Z,8.70
2022-09-09T03:27:26.533Z,9.30
2022-09-09T03:29:54.659Z,8.93
2022-09-09T03:32:23.509Z,10.90
2022-09-09T03:34:51.478Z,8.60
2022-09-09T03:37:22.141Z,9.27
2022-09-09T03:39:49.959Z,8.07
2022-09-09T03:42:19.749Z,8.60
2022-09-09T03:44:51.104Z,9.53
2022-09-09T03:47:22.839Z,9.47
2022-09-09T03:49:50.904Z,9.40
2022-09-09T03:52:23.538Z,9.90
2022-09-09T03:54:55.109Z,9.43
2022-09-09T03:57:23.219Z,9.70
2022-09-09T03:59:51.128Z,9.80
2022-09-09T04:02:19.409Z,9.83
2022-09-09T04:04:47.326Z,8.73
2022-09-09T04:07:15.462Z,10.37
2022-09-09T04:09:43.480Z,10.53
2022-09-09T04:12:14.293Z,9.80
2022-09-09T04:14:43.041Z,9.60
2022-09-09T04:17:11.256Z,10.40
2022-09-09T04:19:39.210Z,10.63
2022-09-09T04:22:06.940Z,10.80
2022-09-09T04:24:34.941Z,10.63
2022-09-09T04:27:03.234Z,10.10
2022-09-09T04:29:32.656Z,10.10
2022-09-09T04:32:01.024Z,10.53
2022-09-09T04:34:29.474Z,10.67
2022-09-09T04:36:57.987Z,10.27
2022-09-09T04:39:25.929Z,10.03
2022-09-09T04:41:54.241Z,9.33
2022-09-09T04:44:22.235Z,9.53
2022-09-09T04:46:51.513Z,10.37
2022-09-09T04:49:19.260Z,11.00
2022-09-09T04:51:48.073Z,10.20
2022-09-09T04:54:16.193Z,10.60
2022-09-09T04:56:44.455Z,10.03
2022-09-09T04:59:15.069Z,9.50
2022-09-09T05:01:44.289Z,8.80
2022-09-09T05:04:16.469Z,9.97
2022-09-09T05:06:44.621Z,10.33
2022-09-09T05:09:12.501Z,9.37
2022-09-09T05:11:41.790Z,9.67
2022-09-09T05:14:10.382Z,8.70
2022-09-09T05:16:38.632Z,9.33
2022-09-09T05:19:07.470Z,8.97
2022-09-09T05:21:37.381Z,9.07
2022-09-09T05:24:05.459Z,8.67
2022-09-09T05:26:33.662Z,8.43
2022-09-09T05:29:01.900Z,9.10
2022-09-09T05:31:31.938Z,8.27
2022-09-09T05:34:01.655Z,8.53
2022-09-09T05:36:29.520Z,8.37
2022-09-09T05:38:59.005Z,9.07
2022-09-09T05:41:27.116Z,8.87
2022-09-09T05:43:55.019Z,8.33
2022-09-09T05:46:26.017Z,8.70
2022-09-09T05:48:54.697Z,6.83
2022-09-09T05:51:23.829Z,9.10
2022-09-09T05:53:52.272Z,9.23
2022-09-09T05:56:23.038Z,8.93
2022-09-09T05:58:51.488Z,7.60
2022-09-09T06:01:21.394Z,8.40
2022-09-09T06:03:49.673Z,8.10
2022-09-09T06:06:18.658Z,6.20
2022-09-09T06:08:47.363Z,5.70
2022-09-09T06:11:16.281Z,6.53
2022-09-09T06:13:46.964Z,6.37
2022-09-09T06:16:16.391Z,9.33
2022-09-09T06:18:45.026Z,9.47
2022-09-09T06:21:23.043Z,5.60
2022-09-09T06:23:56.656Z,10.10
2022-09-09T06:26:28.007Z,10.30
2022-09-09T06:28:58.939Z,7.13
2022-09-09T06:31:30.010Z,6.30
2022-09-09T06:33:58.325Z,6.20
2022-09-09T06:36:27.123Z,6.77
2022-09-09T06:38:55.986Z,5.27
2022-09-09T06:41:25.117Z,5.43
2022-09-09T06:43:53.388Z,6.37
2022-09-09T06:46:24.007Z,5.97
2022-09-09T06:48:51.771Z,5.70
2022-09-09T06:51:22.704Z,5.87
2022-09-09T06:53:54.431Z,5.30
2022-09-09T06:56:24.253Z,6.30
2022-09-09T06:58:54.586Z,5.00
2022-09-09T07:01:25.062Z,5.20
2022-09-09T07:03:53.597Z,5.30
2022-09-09T07:06:22.151Z,4.97
2022-09-09T07:08:56.554Z,4.70
2022-09-09T07:11:27.189Z,5.10
2022-09-09T07:13:55.321Z,5.35
2022-09-09T07:16:25.880Z,5.28
2022-09-09T07:18:56.868Z,5.53
2022-09-09T07:21:27.365Z,4.30
2022-09-09T07:23:55.629Z,4.78
2022-09-09T07:26:24.224Z,4.88
2022-09-09T07:28:52.025Z,4.70
2022-09-09T07:31:21.879Z,4.82
2022-09-09T07:33:51.353Z,4.93
2022-09-09T07:36:19.891Z,4.68
2022-09-09T07:38:48.817Z,4.90
2022-09-09T07:41:18.401Z,5.53
2022-09-09T07:43:48.752Z,5.32
2022-09-09T07:46:17.187Z,5.07
2022-09-09T07:48:46.569Z,5.10
2022-09-09T07:51:18.093Z,6.30
2022-09-09T07:53:45.887Z,4.60
2022-09-09T07:56:17.751Z,4.72
2022-09-09T07:58:47.588Z,5.40
2022-09-09T08:01:17.082Z,5.20
2022-09-09T08:03:45.326Z,5.38
2022-09-09T08:06:13.803Z,4.82
2022-09-09T08:08:44.332Z,5.00
2022-09-09T08:11:13.730Z,5.28
2022-09-09T08:13:42.443Z,5.10
2022-09-09T08:16:11.806Z,5.22
2022-09-09T08:18:40.257Z,5.38
2022-09-09T08:21:09.455Z,4.40
2022-09-09T08:23:37.782Z,5.47
2022-09-09T08:26:07.926Z,6.07
2022-09-09T08:28:35.644Z,5.20
2022-09-09T08:31:11.663Z,5.88
2022-09-09T08:33:40.316Z,5.40
2022-09-09T08:36:09.950Z,5.32
2022-09-09T08:38:38.456Z,5.68
2022-09-09T08:41:22.467Z,4.65
2022-09-09T08:43:53.167Z,5.57
2022-09-09T08:46:25.129Z,5.65
2022-09-09T08:48:59.235Z,5.47
2022-09-09T08:51:27.860Z,4.90
2022-09-09T08:53:59.769Z,5.85
2022-09-09T08:56:29.272Z,5.90
2022-09-09T08:58:59.129Z,5.05
2022-09-09T09:01:32.916Z,5.13
2022-09-09T09:04:04.939Z,6.05
2022-09-09T09:06:38.907Z,5.50
2022-09-09T09:09:08.735Z,5.40
2022-09-09T09:11:37.974Z,5.25
2022-09-09T09:14:11.250Z,5.65
2022-09-09T09:16:41.190Z,5.53
2022-09-09T09:19:11.255Z,5.05
2022-09-09T09:21:41.799Z,5.22
2022-09-09T09:24:13.633Z,5.57
2022-09-09T09:26:42.141Z,5.22
2022-09-09T09:29:13.696Z,5.82
2022-09-09T09:31:41.826Z,5.72
2022-09-09T09:34:11.517Z,5.32
2022-09-09T09:36:42.535Z,5.40
2022-09-09T09:42:06.463Z,5.57
2022-09-09T09:44:38.489Z,5.43
2022-09-09T09:47:10.439Z,5.25
2022-09-09T09:49:38.201Z,5.82
2022-09-09T09:52:09.755Z,5.75
2022-09-09T09:54:40.651Z,5.40
2022-09-09T09:57:12.355Z,6.22
2022-09-09T09:59:42.222Z,5.40
2022-09-09T10:02:16.673Z,5.35
2022-09-09T10:04:46.411Z,5.43
2022-09-09T10:07:15.032Z,5.22
2022-09-09T10:09:43.005Z,5.22
2022-09-09T10:12:17.195Z,5.50
2022-09-09T10:14:50.490Z,5.50
2022-09-09T10:17:24.708Z,5.65
2022-09-09T10:19:57.589Z,5.63
2022-09-09T10:22:29.921Z,5.70
2022-09-09T10:25:07.648Z,5.10
2022-09-09T10:27:43.938Z,4.93
2022-09-09T10:30:16.283Z,5.30
2022-09-09T10:32:48.073Z,6.05
2022-09-09T10:35:21.819Z,5.18
2022-09-09T10:38:16.541Z,5.55
2022-09-09T10:40:47.374Z,5.30
2022-09-09T10:43:21.147Z,6.15
2022-09-09T10:45:58.264Z,5.20
2022-09-09T10:48:34.208Z,5.80
2022-09-09T10:51:17.284Z,6.35
2022-09-09T10:53:50.021Z,6.30
2022-09-09T10:56:19.581Z,6.80
2022-09-09T10:58:51.051Z,5.28
2022-09-09T11:01:22.550Z,5.80
2022-09-09T11:03:54.431Z,5.85
2022-09-09T11:06:26.525Z,5.25
2022-09-09T11:08:57.067Z,6.20
2022-09-09T11:11:28.528Z,5.75
2022-09-09T11:13:58.171Z,5.97
2022-09-09T11:16:31.216Z,5.53
2022-09-09T11:19:03.727Z,6.00
2022-09-09T11:21:33.889Z,5.43
2022-09-09T11:24:05.315Z,6.57
2022-09-09T11:26:35.523Z,6.47
2022-09-09T11:29:17.019Z,6.30
2022-09-09T11:31:50.910Z,6.40
2022-09-09T11:34:23.880Z,6.90
2022-09-09T11:36:58.489Z,6.57
2022-09-09T11:39:38.369Z,8.13
2022-09-09T11:42:09.835Z,7.22
2022-09-09T11:47:21.583Z,7.43
2022-09-09T11:49:49.642Z,7.65
2022-09-09T11:52:23.972Z,7.68
2022-09-09T11:54:52.348Z,6.90
2022-09-09T11:57:26.995Z,7.57
2022-09-09T11:59:55.725Z,6.57
2022-09-09T12:02:27.692Z,7.07
2022-09-09T12:04:59.639Z,8.35
2022-09-09T12:07:31.518Z,7.05
2022-09-09T12:10:02.349Z,7.43
2022-09-09T12:12:32.818Z,7.63
2022-09-09T12:15:05.834Z,7.15
2022-09-09T12:17:40.634Z,8.07
2022-09-09T12:20:15.084Z,7.63
2022-09-09T12:22:49.556Z,7.43
2022-09-09T12:25:23.406Z,7.50
2022-09-09T12:27:58.705Z,8.45
2022-09-09T12:30:31.741Z,8.60
2022-09-09T12:33:04.737Z,10.15
2022-09-09T12:35:33.351Z,8.05
2022-09-09T12:38:04.934Z,8.07
2022-09-09T12:40:36.319Z,7.57
2022-09-09T12:43:07.110Z,7.70
2022-09-09T12:45:37.049Z,7.78
2022-09-09T12:48:08.539Z,8.52
2022-09-09T12:50:38.724Z,8.23
2022-09-09T12:53:10.220Z,8.52
2022-09-09T12:55:39.879Z,11.90
2022-09-09T12:58:08.519Z,10.10
2022-09-09T13:00:37.179Z,7.53
2022-09-09T13:03:18.615Z,8.75
2022-09-09T13:05:47.807Z,7.78
2022-09-09T13:08:18.311Z,7.45
2022-09-09T13:10:54.517Z,7.40
2022-09-09T13:13:26.271Z,7.85
2022-09-09T13:15:56.155Z,7.95
2022-09-09T13:18:26.286Z,7.88
2022-09-09T13:20:54.151Z,7.95
2022-09-09T13:23:23.321Z,7.90
2022-09-09T13:25:57.912Z,8.93
2022-09-09T13:28:27.374Z,7.60
2022-09-09T13:31:03.506Z,7.75
2022-09-09T13:33:35.926Z,6.68
2022-09-09T13:36:06.561Z,8.55
2022-09-09T13:38:36.395Z,7.88
2022-09-09T13:41:05.843Z,8.30
2022-09-09T13:43:36.071Z,8.68
2022-09-09T13:46:05.523Z,7.63
2022-09-09T13:48:34.991Z,7.70
2022-09-09T13:51:05.290Z,8.63
2022-09-09T13:53:34.152Z,8.32
2022-09-09T13:56:02.368Z,8.57
2022-09-09T13:58:30.363Z,8.77
2022-09-09T14:00:58.558Z,7.78
2022-09-09T14:03:26.818Z,7.40
2022-09-09T14:05:56.800Z,8.60
2022-09-09T14:08:26.301Z,7.75
2022-09-09T14:10:54.620Z,9.00
2022-09-09T14:13:23.037Z,8.63
2022-09-09T14:15:51.803Z,7.85
2022-09-09T14:18:19.873Z,7.75
2022-09-09T14:20:47.620Z,7.85
2022-09-09T14:23:16.979Z,7.95
2022-09-09T14:25:45.328Z,8.45
2022-09-09T14:28:13.688Z,7.88
2022-09-09T14:30:42.437Z,7.88
2022-09-09T14:33:12.483Z,7.68
2022-09-09T14:35:41.678Z,7.70
2022-09-09T14:38:09.713Z,7.53
2022-09-09T14:40:45.385Z,6.90
2022-09-09T14:43:13.512Z,7.93
2022-09-09T14:45:43.942Z,8.30
2022-09-09T14:48:11.826Z,8.38
2022-09-09T14:50:41.103Z,8.65
2022-09-09T14:53:10.419Z,7.28
2022-09-09T14:55:40.054Z,7.13
2022-09-09T14:58:08.507Z,7.18
2022-09-09T15:00:36.832Z,6.47
2022-09-09T15:03:04.995Z,7.25
2022-09-09T15:05:32.919Z,6.60
2022-09-09T15:08:00.992Z,7.03
2022-09-09T15:10:28.750Z,7.05
2022-09-09T15:12:58.501Z,7.05
2022-09-09T15:15:27.556Z,8.57
2022-09-09T15:17:56.093Z,8.02
2022-09-09T15:20:25.259Z,8.10
2022-09-09T15:22:53.903Z,7.43
2022-09-09T15:25:23.090Z,7.60
2022-09-09T15:27:51.173Z,7.47
2022-09-09T15:30:20.626Z,7.82
2022-09-09T15:32:49.391Z,7.65
2022-09-09T15:35:17.616Z,7.53
2022-09-09T15:37:46.247Z,7.80
2022-09-09T15:40:14.091Z,7.72
2022-09-09T15:42:41.845Z,7.32
2022-09-09T15:45:10.243Z,7.00
2022-09-09T15:47:40.687Z,7.22
2022-09-09T15:50:09.367Z,7.18
2022-09-09T15:52:37.470Z,7.53
2022-09-09T15:55:06.352Z,7.95
2022-09-09T15:57:35.568Z,6.85
2022-09-09T16:00:05.238Z,8.00
2022-09-09T16:02:33.025Z,6.90
2022-09-09T16:05:02.591Z,7.07
2022-09-09T16:07:30.649Z,6.45
2022-09-09T16:09:58.762Z,7.47
2022-09-09T16:12:27.398Z,6.68
2022-09-09T16:14:55.885Z,7.65
2022-09-09T16:17:23.975Z,6.97
2022-09-09T16:19:52.006Z,6.35
2022-09-09T16:22:21.667Z,7.43
2022-09-09T16:24:49.733Z,7.25
2022-09-09T16:27:18.456Z,6.45
2022-09-09T16:29:46.453Z,6.63
2022-09-09T16:32:14.221Z,6.68
2022-09-09T16:34:44.048Z,6.28
2022-09-09T16:37:12.358Z,6.22
2022-09-09T16:39:41.773Z,7.72
2022-09-09T16:42:10.823Z,6.35
2022-09-09T16:44:41.142Z,6.97
2022-09-09T16:47:08.863Z,7.40
2022-09-09T16:49:38.110Z,7.53
2022-09-09T16:52:05.942Z,7.53
2022-09-09T16:54:34.089Z,8.50
2022-09-09T16:57:03.349Z,7.53
2022-09-09T16:59:32.703Z,10.48
2022-09-09T17:02:01.678Z,8.43
2022-09-09T17:04:29.787Z,7.88
2022-09-09T17:06:58.690Z,6.85
2022-09-09T17:09:30.615Z,7.85
2022-09-09T17:11:58.750Z,8.27
2022-09-09T17:14:27.949Z,7.45
2022-09-09T17:16:55.801Z,7.82
2022-09-09T17:19:24.864Z,8.05
2022-09-09T17:22:15.422Z,8.60
2022-09-09T17:24:42.299Z,8.90
2022-09-09T17:27:10.392Z,8.32
2022-09-09T17:29:40.125Z,8.55
2022-09-09T17:32:09.015Z,8.57
2022-09-09T17:34:37.245Z,7.70
2022-09-09T17:37:05.191Z,7.28
2022-09-09T17:39:35.387Z,7.40
2022-09-09T17:42:03.695Z,7.82
2022-09-09T17:44:33.332Z,8.27
2022-09-09T17:47:04.982Z,7.53
2022-09-09T17:49:33.795Z,6.97
2022-09-09T17:52:01.610Z,7.03
2022-09-09T17:54:31.107Z,7.87
2022-09-09T17:57:02.578Z,6.17
2022-09-09T17:59:31.721Z,7.43
2022-09-09T18:02:00.264Z,8.13
2022-09-09T18:04:30.091Z,7.00
2022-09-09T18:06:59.445Z,6.40
2022-09-09T18:09:29.327Z,6.93
2022-09-09T18:11:58.754Z,6.70
2022-09-09T18:14:27.628Z,6.87
2022-09-09T18:16:56.996Z,6.00
2022-09-09T18:19:25.870Z,7.33
2022-09-09T18:21:57.522Z,6.50
2022-09-09T18:24:28.360Z,6.40
2022-09-09T18:26:56.501Z,6.43
2022-09-09T18:29:25.563Z,6.03
2022-09-09T18:31:55.252Z,5.77
2022-09-09T18:34:25.744Z,6.07
2022-09-09T18:36:56.209Z,6.07
2022-09-09T18:39:25.120Z,5.93
2022-09-09T18:41:54.100Z,5.40
2022-09-09T18:44:23.509Z,6.10
2022-09-09T18:46:52.959Z,6.00
2022-09-09T18:49:21.249Z,5.50
2022-09-09T18:51:49.296Z,5.23
2022-09-09T18:54:21.062Z,5.57
2022-09-09T18:56:48.863Z,6.20
2022-09-09T18:59:19.263Z,5.73
2022-09-09T19:01:48.031Z,6.50
2022-09-09T19:04:16.316Z,5.97
2022-09-09T19:06:46.837Z,5.73
2022-09-09T19:09:21.546Z,6.27
2022-09-09T19:11:56.580Z,5.80
2022-09-09T19:14:24.477Z,6.17
2022-09-09T19:16:52.313Z,6.10
2022-09-09T19:19:21.247Z,6.00
2022-09-09T19:21:49.295Z,5.47
2022-09-09T19:24:18.229Z,7.07
2022-09-09T19:26:49.006Z,6.43
2022-09-09T19:29:19.444Z,7.20
2022-09-09T19:32:09.410Z,7.27
2022-09-09T19:34:36.487Z,6.37
2022-09-09T19:37:05.019Z,6.67
2022-09-09T19:39:35.554Z,6.60
2022-09-09T19:42:05.158Z,5.57
2022-09-09T19:44:33.145Z,6.03
2022-09-09T19:47:01.596Z,5.83
2022-09-09T19:49:29.431Z,5.50
2022-09-09T19:51:57.156Z,7.47
2022-09-09T19:54:24.829Z,7.07
2022-09-09T19:56:53.455Z,5.80
2022-09-09T19:59:23.018Z,5.83
2022-09-09T20:01:51.420Z,6.60
2022-09-09T20:04:19.476Z,7.00
2022-09-09T20:06:47.505Z,7.27
2022-09-09T20:09:16.552Z,6.87
2022-09-09T20:11:45.146Z,5.97
2022-09-09T20:14:13.011Z,6.67
2022-09-09T20:16:42.528Z,6.30
2022-09-09T20:19:11.462Z,7.50
2022-09-09T20:21:43.933Z,7.10
2022-09-09T20:24:15.308Z,7.43
2022-09-09T20:26:43.894Z,6.60
2022-09-09T20:29:15.937Z,8.03
2022-09-09T20:31:45.551Z,6.93
2022-09-09T20:34:14.321Z,7.63
2022-09-09T20:36:42.959Z,7.53
2022-09-09T20:39:11.935Z,7.60
2022-09-09T20:41:40.890Z,8.27
2022-09-09T20:44:12.389Z,7.63
2022-09-09T20:46:43.868Z,8.17
2022-09-09T20:49:13.401Z,8.30
2022-09-09T20:51:41.431Z,8.10
2022-09-09T20:54:10.953Z,7.67
2022-09-09T20:56:39.464Z,7.63
2022-09-09T20:59:08.835Z,7.73
2022-09-09T21:01:37.078Z,7.90
2022-09-09T21:04:05.387Z,8.17
2022-09-09T21:06:35.040Z,7.90
2022-09-09T21:09:03.399Z,8.70
2022-09-09T21:11:32.823Z,9.20
2022-09-09T21:14:00.526Z,8.50
2022-09-09T21:16:28.747Z,9.20
2022-09-09T21:18:56.987Z,8.73
2022-09-09T21:21:24.872Z,8.00
2022-09-09T21:23:55.575Z,9.20
2022-09-09T21:26:23.357Z,9.23
2022-09-09T21:28:51.285Z,8.90
2022-09-09T21:31:20.656Z,8.40
2022-09-09T21:33:51.491Z,7.60
2022-09-09T21:36:19.797Z,7.27
2022-09-09T21:38:47.635Z,8.10
2022-09-09T21:41:18.185Z,7.80
2022-09-09T21:43:47.499Z,8.30
2022-09-09T21:46:16.517Z,8.37
2022-09-09T21:48:45.001Z,8.20
2022-09-09T21:51:14.463Z,8.30
2022-09-09T21:53:42.477Z,8.50
2022-09-09T21:56:11.686Z,7.80
2022-09-09T21:58:43.850Z,7.93
2022-09-09T22:01:13.021Z,7.43
2022-09-09T22:03:42.731Z,7.23
2022-09-09T22:06:13.528Z,8.50
2022-09-09T22:08:42.817Z,8.10
2022-09-09T22:11:11.764Z,8.63
2022-09-09T22:13:42.637Z,8.73
2022-09-09T22:16:12.395Z,8.80
2022-09-09T22:18:40.903Z,8.30
2022-09-09T22:21:09.925Z,8.80
2022-09-09T22:23:37.688Z,8.83
2022-09-09T22:26:06.023Z,8.37
2022-09-09T22:28:34.179Z,9.23
2022-09-09T22:31:03.701Z,9.67
2022-09-09T22:33:31.575Z,9.17
2022-09-09T22:35:59.738Z,9.10
2022-09-09T22:38:27.454Z,9.60
2022-09-09T22:40:56.537Z,8.23
2022-09-09T22:43:24.474Z,8.60
2022-09-09T22:45:52.207Z,8.47
2022-09-09T22:48:21.821Z,8.27
2022-09-09T22:50:49.853Z,8.57
2022-09-09T22:53:19.358Z,8.40
2022-09-09T22:55:58.298Z,8.60
2022-09-09T22:58:26.357Z,8.17
2022-09-09T23:00:58.032Z,8.67
2022-09-09T23:03:28.291Z,8.90
2022-09-09T23:05:57.991Z,8.47
2022-09-09T23:08:26.998Z,8.60
2022-09-09T23:10:56.216Z,8.97
2022-09-09T23:13:25.544Z,9.67
2022-09-09T23:15:53.564Z,9.80
2022-09-09T23:18:26.909Z,9.53
2022-09-09T23:21:00.740Z,9.53
2022-09-09T23:23:28.775Z,9.60
2022-09-09T23:25:56.761Z,9.27
2022-09-09T23:28:24.637Z,9.63
2022-09-09T23:30:52.965Z,9.93
2022-09-09T23:33:21.256Z,10.80
2022-09-09T23:35:50.250Z,10.70
2022-09-09T23:38:19.783Z,9.33
2022-09-09T23:40:47.429Z,10.50
2022-09-09T23:43:15.479Z,10.17
2022-09-09T23:45:43.217Z,11.33
2022-09-09T23:48:10.915Z,9.17
2022-09-09T23:50:39.108Z,10.33
2022-09-09T23:53:07.377Z,11.03
2022-09-09T23:55:37.001Z,10.07
2022-09-09T23:58:05.059Z,10.37
